createdAt,value
2022-08-22T00:02:15.929Z,24.57
2022-08-22T00:02:46.132Z,23.91
2022-08-22T00:02:48.934Z,23.94
2022-08-22T00:03:03.866Z,25.19
2022-08-22T00:03:04.982Z,25.22
2022-08-22T00:04:42.261Z,24.52
2022-08-22T00:07:08.624Z,24.52
2022-08-22T00:09:35.018Z,24.49
2022-08-22T00:12:01.381Z,24.49
2022-08-22T00:14:27.773Z,24.52
2022-08-22T00:16:54.132Z,24.51
2022-08-22T00:19:20.606Z,24.46
2022-08-22T00:21:46.973Z,24.41
2022-08-22T00:24:13.354Z,24.46
2022-08-22T00:26:43.396Z,24.49
2022-08-22T00:29:06.138Z,24.38
2022-08-22T00:31:32.519Z,24.28
2022-08-22T00:33:58.883Z,24.26
2022-08-22T00:36:25.329Z,24.25
2022-08-22T00:38:51.761Z,24.16
2022-08-22T00:41:18.149Z,24.13
2022-08-22T00:43:44.512Z,24.08
2022-08-22T00:46:10.959Z,24.12
2022-08-22T00:48:37.333Z,24.09
2022-08-22T00:51:03.723Z,24.11
2022-08-22T00:53:30.161Z,24.15
2022-08-22T00:55:56.581Z,24.14
2022-08-22T00:58:22.955Z,24.18
2022-08-22T01:00:49.432Z,24.18
2022-08-22T01:03:15.722Z,24.17
2022-08-22T01:05:42.116Z,24.05
2022-08-22T01:08:08.540Z,23.95
2022-08-22T01:10:34.983Z,23.87
2022-08-22T01:13:01.352Z,23.80
2022-08-22T01:15:27.746Z,23.77
2022-08-22T01:17:54.148Z,23.75
2022-08-22T01:20:20.612Z,23.83
2022-08-22T01:22:46.973Z,23.89
2022-08-22T01:25:13.374Z,23.93
2022-08-22T01:27:39.808Z,23.95
2022-08-22T01:30:06.243Z,23.88
2022-08-22T01:32:32.673Z,23.76
2022-08-22T01:34:59.042Z,23.65
2022-08-22T01:37:25.571Z,23.62
2022-08-22T01:39:51.979Z,23.57
2022-08-22T01:42:18.298Z,23.57
2022-08-22T01:44:44.712Z,23.61
2022-08-22T01:47:11.102Z,23.59
2022-08-22T01:49:37.498Z,23.53
2022-08-22T01:52:03.922Z,23.49
2022-08-22T01:54:30.307Z,23.42
2022-08-22T01:56:56.663Z,23.39
2022-08-22T01:59:23.136Z,23.37
2022-08-22T02:01:49.491Z,23.35
2022-08-22T02:04:15.887Z,23.35
2022-08-22T02:06:42.250Z,23.37
2022-08-22T02:09:08.620Z,23.36
2022-08-22T02:11:35.028Z,23.29
2022-08-22T02:14:01.418Z,23.24
2022-08-22T02:16:27.775Z,23.24
2022-08-22T02:18:54.143Z,23.31
2022-08-22T02:21:20.620Z,23.37
2022-08-22T02:23:46.985Z,23.40
2022-08-22T02:26:13.348Z,23.50
2022-08-22T02:28:40.513Z,23.62
2022-08-22T02:31:06.113Z,23.70
2022-08-22T02:33:32.543Z,23.70
2022-08-22T02:35:58.910Z,23.70
2022-08-22T02:38:25.292Z,23.77
2022-08-22T02:40:51.652Z,23.83
2022-08-22T02:43:18.054Z,23.85
2022-08-22T02:45:44.437Z,23.88
2022-08-22T02:48:10.804Z,23.94
2022-08-22T02:50:37.244Z,24.01
2022-08-22T02:53:03.636Z,23.99
2022-08-22T02:55:30.068Z,23.96
2022-08-22T02:57:56.494Z,23.89
2022-08-22T03:00:30.748Z,23.88
2022-08-22T03:02:49.264Z,23.80
2022-08-22T03:05:15.649Z,23.78
2022-08-22T03:07:42.019Z,23.70
2022-08-22T03:10:08.441Z,23.65
2022-08-22T03:12:34.811Z,23.52
2022-08-22T03:15:01.176Z,23.51
2022-08-22T03:17:27.582Z,23.44
2022-08-22T03:19:53.988Z,23.49
2022-08-22T03:22:20.366Z,23.57
2022-08-22T03:24:46.730Z,23.62
2022-08-22T03:27:13.184Z,23.55
2022-08-22T03:29:39.546Z,23.60
2022-08-22T03:32:05.949Z,23.63
2022-08-22T03:34:32.317Z,23.57
2022-08-22T03:36:58.726Z,23.50
2022-08-22T03:39:25.097Z,23.38
2022-08-22T03:41:51.458Z,23.24
2022-08-22T03:44:17.864Z,23.22
2022-08-22T03:46:44.246Z,23.19
2022-08-22T03:49:10.628Z,23.18
2022-08-22T03:51:37.105Z,23.14
2022-08-22T03:54:03.542Z,23.15
2022-08-22T03:56:29.973Z,23.14
2022-08-22T03:58:56.399Z,23.09
2022-08-22T04:01:22.778Z,23.01
2022-08-22T04:03:49.151Z,22.87
2022-08-22T04:06:15.604Z,22.79
2022-08-22T04:08:43.927Z,22.75
2022-08-22T04:11:08.466Z,22.72
2022-08-22T04:13:34.840Z,22.70
2022-08-22T04:16:01.226Z,22.74
2022-08-22T04:18:27.668Z,22.72
2022-08-22T04:20:54.098Z,22.70
2022-08-22T04:23:20.462Z,22.85
2022-08-22T04:25:46.827Z,22.92
2022-08-22T04:28:13.297Z,22.98
2022-08-22T04:30:39.677Z,23.04
2022-08-22T04:33:06.060Z,23.06
2022-08-22T04:35:32.425Z,23.11
2022-08-22T04:37:58.905Z,23.11
2022-08-22T04:40:25.317Z,23.14
2022-08-22T04:42:51.700Z,23.16
2022-08-22T04:45:18.097Z,23.22
2022-08-22T04:47:46.030Z,23.29
2022-08-22T04:50:10.827Z,23.39
2022-08-22T04:52:37.320Z,23.52
2022-08-22T04:55:03.697Z,23.62
2022-08-22T04:57:30.065Z,23.66
2022-08-22T04:59:56.489Z,23.59
2022-08-22T05:02:22.941Z,23.49
2022-08-22T05:04:49.299Z,23.42
2022-08-22T05:07:15.713Z,23.41
2022-08-22T05:09:42.139Z,23.50
2022-08-22T05:12:08.572Z,23.65
2022-08-22T05:14:34.936Z,23.82
2022-08-22T05:17:01.445Z,24.17
2022-08-22T05:19:31.899Z,24.32
2022-08-22T05:21:54.189Z,24.34
2022-08-22T05:24:20.646Z,24.29
2022-08-22T05:26:47.015Z,24.31
2022-08-22T05:29:13.445Z,24.42
2022-08-22T05:31:39.813Z,24.44
2022-08-22T05:34:06.262Z,24.43
2022-08-22T05:36:32.639Z,24.44
2022-08-22T05:38:58.998Z,24.41
2022-08-22T05:41:25.370Z,24.39
2022-08-22T05:43:51.752Z,24.31
2022-08-22T05:46:18.182Z,24.27
2022-08-22T05:48:44.566Z,24.36
2022-08-22T05:51:10.930Z,24.49
2022-08-22T05:53:37.299Z,24.70
2022-08-22T05:56:03.674Z,24.84
2022-08-22T05:58:30.095Z,25.05
2022-08-22T06:00:56.523Z,25.33
2022-08-22T06:03:22.883Z,25.61
2022-08-22T06:05:49.384Z,25.87
2022-08-22T06:08:15.747Z,26.04
2022-08-22T06:10:42.114Z,26.22
2022-08-22T06:13:11.583Z,26.41
2022-08-22T06:15:35.019Z,26.59
2022-08-22T06:18:01.406Z,26.72
2022-08-22T06:20:28.782Z,26.79
2022-08-22T06:22:54.149Z,26.79
2022-08-22T06:25:20.549Z,26.90
2022-08-22T06:27:46.936Z,27.14
2022-08-22T06:30:13.415Z,27.29
2022-08-22T06:32:59.036Z,27.49
2022-08-22T06:35:06.296Z,27.40
2022-08-22T06:37:32.661Z,27.20
2022-08-22T06:39:59.113Z,27.05
2022-08-22T06:42:25.472Z,26.75
2022-08-22T06:44:51.846Z,26.53
2022-08-22T06:47:18.241Z,26.42
2022-08-22T06:49:44.675Z,26.27
2022-08-22T06:52:11.079Z,26.20
2022-08-22T06:54:37.446Z,26.16
2022-08-22T06:57:03.829Z,26.12
2022-08-22T06:59:30.303Z,26.07
2022-08-22T07:01:56.742Z,25.94
2022-08-22T07:04:23.041Z,25.91
2022-08-22T07:06:49.491Z,25.93
2022-08-22T07:09:15.884Z,25.89
2022-08-22T07:11:42.264Z,25.80
2022-08-22T07:14:08.636Z,25.63
2022-08-22T07:16:35.011Z,25.53
2022-08-22T07:19:01.457Z,25.57
2022-08-22T07:21:27.842Z,25.68
2022-08-22T07:23:54.212Z,25.82
2022-08-22T07:26:20.587Z,25.95
2022-08-22T07:28:51.341Z,26.04
2022-08-22T07:31:13.460Z,26.15
2022-08-22T07:33:39.852Z,26.16
2022-08-22T07:36:06.247Z,26.05
2022-08-22T07:38:32.638Z,26.04
2022-08-22T07:40:59.047Z,26.25
2022-08-22T07:43:25.483Z,26.60
2022-08-22T07:45:51.906Z,26.94
2022-08-22T07:48:25.612Z,27.31
2022-08-22T07:50:44.703Z,27.68
2022-08-22T07:53:11.133Z,27.99
2022-08-22T07:55:48.487Z,28.36
2022-08-22T07:58:04.215Z,28.77
2022-08-22T08:00:30.298Z,29.14
2022-08-22T08:02:56.799Z,29.43
2022-08-22T08:05:23.163Z,29.86
2022-08-22T08:07:49.534Z,30.10
2022-08-22T08:10:15.941Z,30.42
2022-08-22T08:12:42.329Z,30.57
2022-08-22T08:15:08.695Z,30.01
2022-08-22T08:17:35.136Z,29.39
2022-08-22T08:20:01.500Z,29.10
2022-08-22T08:22:28.005Z,29.04
2022-08-22T08:24:54.434Z,28.83
2022-08-22T08:27:20.883Z,28.76
2022-08-22T08:29:47.291Z,28.71
2022-08-22T08:32:13.652Z,28.68
2022-08-22T08:34:40.033Z,28.70
2022-08-22T08:37:06.408Z,28.79
2022-08-22T08:39:35.523Z,28.97
2022-08-22T08:41:59.253Z,28.98
2022-08-22T08:44:25.615Z,29.32
2022-08-22T08:46:55.865Z,29.72
2022-08-22T08:49:21.031Z,29.86
2022-08-22T08:51:44.795Z,29.58
2022-08-22T08:54:11.178Z,29.42
2022-08-22T08:56:37.551Z,29.34
2022-08-22T08:59:03.917Z,29.64
2022-08-22T09:01:30.343Z,29.92
2022-08-22T09:03:56.686Z,30.01
2022-08-22T09:06:23.058Z,29.93
2022-08-22T09:08:53.840Z,29.81
2022-08-22T09:11:15.894Z,30.27
2022-08-22T09:13:42.283Z,30.57
2022-08-22T09:16:10.030Z,31.02
2022-08-22T09:18:35.088Z,31.05
2022-08-22T09:21:01.847Z,30.87
2022-08-22T09:23:28.408Z,31.05
2022-08-22T09:25:54.786Z,31.49
2022-08-22T09:28:21.156Z,31.59
2022-08-22T09:30:47.574Z,31.90
2022-08-22T09:33:13.931Z,32.08
2022-08-22T09:35:40.299Z,31.81
2022-08-22T09:38:06.707Z,31.66
2022-08-22T09:40:33.101Z,32.07
2022-08-22T09:42:59.926Z,32.22
2022-08-22T09:45:26.688Z,32.52
2022-08-22T09:47:53.375Z,32.74
2022-08-22T09:50:20.116Z,32.83
2022-08-22T09:52:46.879Z,33.00
2022-08-22T09:55:16.023Z,33.05
2022-08-22T09:57:39.635Z,33.09
2022-08-22T10:00:06.413Z,32.85
2022-08-22T10:02:33.300Z,32.73
2022-08-22T10:04:59.622Z,32.59
2022-08-22T10:07:26.015Z,32.73
2022-08-22T10:09:54.977Z,32.74
2022-08-22T10:12:18.843Z,32.85
2022-08-22T10:14:50.539Z,32.83
2022-08-22T10:17:11.684Z,32.41
2022-08-22T10:19:38.244Z,32.15
2022-08-22T10:22:04.471Z,32.11
2022-08-22T10:24:30.912Z,32.25
2022-08-22T10:26:57.280Z,32.44
2022-08-22T10:29:23.676Z,32.61
2022-08-22T10:31:58.901Z,32.97
2022-08-22T10:34:16.458Z,33.12
2022-08-22T10:36:42.850Z,33.29
2022-08-22T10:39:11.613Z,33.41
2022-08-22T10:41:35.621Z,33.65
2022-08-22T10:44:04.178Z,33.91
2022-08-22T10:46:28.357Z,33.95
2022-08-22T10:48:54.791Z,33.82
2022-08-22T10:51:21.149Z,33.50
2022-08-22T10:53:47.565Z,33.40
2022-08-22T10:56:13.975Z,33.32
2022-08-22T10:58:40.361Z,33.32
2022-08-22T11:01:37.185Z,33.39
2022-08-22T11:03:33.167Z,33.63
2022-08-22T11:05:59.518Z,33.62
2022-08-22T11:08:25.952Z,33.69
2022-08-22T11:10:52.351Z,33.60
2022-08-22T11:13:18.724Z,33.18
2022-08-22T11:15:45.157Z,32.95
2022-08-22T11:18:13.050Z,32.95
2022-08-22T11:20:37.895Z,32.98
2022-08-22T11:23:04.290Z,32.92
2022-08-22T11:25:35.789Z,32.71
2022-08-22T11:27:57.115Z,32.31
2022-08-22T11:30:23.480Z,32.15
2022-08-22T11:32:50.707Z,32.15
2022-08-22T11:35:16.256Z,32.06
2022-08-22T11:37:43.664Z,31.82
2022-08-22T11:40:09.046Z,31.58
2022-08-22T11:42:35.416Z,31.37
2022-08-22T11:45:01.841Z,31.18
2022-08-22T11:47:28.943Z,31.07
2022-08-22T11:49:54.583Z,31.06
2022-08-22T11:52:21.039Z,30.82
2022-08-22T11:54:47.402Z,30.71
2022-08-22T11:57:13.774Z,30.74
2022-08-22T11:59:40.290Z,31.12
2022-08-22T12:02:08.778Z,31.58
2022-08-22T12:04:32.990Z,31.79
2022-08-22T12:06:59.448Z,32.00
2022-08-22T12:09:25.845Z,32.12
2022-08-22T12:11:52.210Z,32.16
2022-08-22T12:14:18.595Z,32.28
2022-08-22T12:16:45.089Z,32.42
2022-08-22T12:19:11.485Z,32.52
2022-08-22T12:21:38.479Z,32.56
2022-08-22T12:24:06.122Z,32.48
2022-08-22T12:26:30.657Z,32.50
2022-08-22T12:28:57.034Z,32.38
2022-08-22T12:31:23.413Z,32.09
2022-08-22T12:33:50.425Z,31.81
2022-08-22T12:36:18.267Z,31.57
2022-08-22T12:38:42.610Z,31.39
2022-08-22T12:41:08.999Z,31.20
2022-08-22T12:43:35.381Z,30.99
2022-08-22T12:46:01.846Z,30.78
2022-08-22T12:48:28.244Z,30.64
2022-08-22T12:50:54.723Z,30.61
2022-08-22T12:53:21.104Z,30.58
2022-08-22T12:55:47.585Z,30.51
2022-08-22T12:58:13.941Z,30.42
2022-08-22T13:00:41.630Z,30.28
2022-08-22T13:03:07.057Z,30.24
2022-08-22T13:05:40.508Z,30.37
2022-08-22T13:08:04.104Z,30.52
2022-08-22T13:10:26.383Z,30.71
2022-08-22T13:12:52.815Z,30.71
2022-08-22T13:15:19.222Z,30.83
2022-08-22T13:17:45.610Z,30.90
2022-08-22T13:20:11.982Z,30.85
2022-08-22T13:22:38.876Z,30.76
2022-08-22T13:25:05.055Z,30.36
2022-08-22T13:27:31.238Z,29.92
2022-08-22T13:29:57.651Z,29.43
2022-08-22T13:32:24.027Z,29.01
2022-08-22T13:34:50.417Z,28.76
2022-08-22T13:37:16.782Z,28.63
2022-08-22T13:39:43.169Z,28.68
2022-08-22T13:42:30.144Z,28.75
2022-08-22T13:44:37.616Z,28.88
2022-08-22T13:47:13.719Z,28.92
2022-08-22T13:49:30.482Z,28.96
2022-08-22T13:51:56.872Z,28.99
2022-08-22T13:54:23.231Z,28.72
2022-08-22T13:56:50.554Z,28.37
2022-08-22T13:59:29.282Z,28.21
2022-08-22T19:09:38.815Z,24.42
2022-08-22T19:12:05.644Z,24.39
2022-08-22T19:14:32.082Z,24.38
2022-08-22T19:16:58.539Z,24.37
2022-08-22T19:19:25.035Z,24.38
2022-08-22T19:21:51.546Z,24.38
2022-08-22T19:24:18.028Z,24.37
2022-08-22T19:26:44.556Z,24.33
2022-08-22T19:29:11.037Z,24.27
2022-08-22T19:31:38.471Z,24.19
2022-08-22T19:34:04.953Z,24.15
2022-08-22T19:36:31.386Z,24.10
2022-08-22T19:38:57.981Z,24.06
2022-08-22T19:41:24.469Z,24.03
2022-08-22T19:43:51.048Z,24.07
2022-08-22T19:46:17.433Z,24.11
2022-08-22T19:48:43.885Z,24.12
2022-08-22T19:51:10.471Z,24.14
2022-08-22T19:53:36.798Z,24.14
2022-08-22T19:56:03.166Z,24.15
2022-08-22T19:58:32.928Z,24.16
2022-08-22T20:00:56.093Z,24.16
2022-08-22T20:03:22.650Z,24.16
2022-08-22T20:05:56.892Z,24.16
2022-08-22T20:08:15.387Z,24.16
2022-08-22T20:10:41.795Z,24.12
2022-08-22T20:13:08.315Z,24.13
2022-08-22T20:15:34.722Z,24.15
2022-08-22T20:20:35.143Z,24.14
2022-08-22T20:22:53.983Z,24.12
2022-08-22T20:25:42.899Z,24.09
2022-08-22T20:27:46.821Z,24.08
2022-08-22T20:30:13.226Z,24.09
2022-08-22T20:32:39.601Z,24.07
2022-08-22T20:35:06.081Z,24.07
2022-08-22T20:37:56.137Z,24.01
2022-08-22T20:39:59.058Z,23.99
2022-08-22T20:42:25.214Z,23.99
2022-08-22T20:44:53.675Z,23.99
2022-08-22T20:47:21.226Z,23.99
2022-08-22T20:49:44.415Z,23.98
